sensor_id;sensor_type;location;lat;lon;timestamp;P1;durP1;ratioP1;P2;durP2;ratioP2
15848;SDS011;8024;48.708;9.394;2023-01-28T00:00:48;11.40;;;8.83;;
15848;SDS011;8024;48.708;9.394;2023-01-28T00:03:15;10.83;;;8.63;;
15848;SDS011;8024;48.708;9.394;2023-01-28T00:05:42;11.40;;;8.80;;
15848;SDS011;8024;48.708;9.394;2023-01-28T00:08:09;10.80;;;8.17;;
15848;SDS011;8024;48.708;9.394;2023-01-28T00:10:38;10.53;;;8.27;;
15848;SDS011;8024;48.708;9.394;2023-01-28T00:13:08;13.30;;;9.67;;
15848;SDS011;8024;48.708;9.394;2023-01-28T00:15:38;13.40;;;9.43;;
15848;SDS011;8024;48.708;9.394;2023-01-28T00:18:05;9.43;;;7.80;;
15848;SDS011;8024;48.708;9.394;2023-01-28T00:20:32;11.10;;;7.77;;
15848;SDS011;8024;48.708;9.394;2023-01-28T00:23:00;10.57;;;8.13;;
15848;SDS011;8024;48.708;9.394;2023-01-28T00:25:27;11.93;;;8.70;;
15848;SDS011;8024;48.708;9.394;2023-01-28T00:27:54;10.57;;;8.77;;
15848;SDS011;8024;48.708;9.394;2023-01-28T00:30:23;11.23;;;8.77;;
15848;SDS011;8024;48.708;9.394;2023-01-28T00:32:50;11.80;;;8.60;;
15848;SDS011;8024;48.708;9.394;2023-01-28T00:35:19;13.63;;;10.57;;
15848;SDS011;8024;48.708;9.394;2023-01-28T00:37:46;13.80;;;9.37;;
15848;SDS011;8024;48.708;9.394;2023-01-28T00:40:14;13.57;;;10.37;;
15848;SDS011;8024;48.708;9.394;2023-01-28T00:42:41;14.40;;;10.33;;
15848;SDS011;8024;48.708;9.394;2023-01-28T00:45:09;14.50;;;10.90;;
15848;SDS011;8024;48.708;9.394;2023-01-28T00:47:37;10.83;;;9.23;;
15848;SDS011;8024;48.708;9.394;2023-01-28T00:50:05;13.63;;;9.87;;
15848;SDS011;8024;48.708;9.394;2023-01-28T00:52:32;10.80;;;8.77;;
15848;SDS011;8024;48.708;9.394;2023-01-28T00:55:00;11.60;;;8.27;;
15848;SDS011;8024;48.708;9.394;2023-01-28T00:57:27;9.70;;;7.83;;
15848;SDS011;8024;48.708;9.394;2023-01-28T00:59:54;12.17;;;9.03;;
15848;SDS011;8024;48.708;9.394;2023-01-28T01:02:21;13.33;;;9.10;;
15848;SDS011;8024;48.708;9.394;2023-01-28T01:04:50;13.33;;;10.00;;
15848;SDS011;8024;48.708;9.394;2023-01-28T01:07:23;11.77;;;8.53;;
15848;SDS011;8024;48.708;9.394;2023-01-28T01:09:58;9.13;;;7.00;;
15848;SDS011;8024;48.708;9.394;2023-01-28T01:12:26;10.47;;;8.50;;
15848;SDS011;8024;48.708;9.394;2023-01-28T01:14:55;9.73;;;7.50;;
15848;SDS011;8024;48.708;9.394;2023-01-28T01:17:22;10.27;;;7.50;;
15848;SDS011;8024;48.708;9.394;2023-01-28T01:19:50;13.00;;;9.57;;
15848;SDS011;8024;48.708;9.394;2023-01-28T01:22:18;11.30;;;8.73;;
15848;SDS011;8024;48.708;9.394;2023-01-28T01:24:46;12.87;;;8.73;;
15848;SDS011;8024;48.708;9.394;2023-01-28T01:27:13;10.93;;;8.67;;
15848;SDS011;8024;48.708;9.394;2023-01-28T01:29:40;11.30;;;8.43;;
15848;SDS011;8024;48.708;9.394;2023-01-28T01:32:08;10.07;;;7.43;;
15848;SDS011;8024;48.708;9.394;2023-01-28T01:34:35;8.90;;;6.97;;
15848;SDS011;8024;48.708;9.394;2023-01-28T01:37:03;11.70;;;7.93;;
15848;SDS011;8024;48.708;9.394;2023-01-28T01:39:32;7.77;;;6.97;;
15848;SDS011;8024;48.708;9.394;2023-01-28T01:41:59;7.97;;;6.13;;
15848;SDS011;8024;48.708;9.394;2023-01-28T01:47:19;8.73;;;6.57;;
15848;SDS011;8024;48.708;9.394;2023-01-28T01:49:48;8.87;;;6.80;;
15848;SDS011;8024;48.708;9.394;2023-01-28T01:52:18;8.40;;;6.60;;
15848;SDS011;8024;48.708;9.394;2023-01-28T01:54:49;7.73;;;6.60;;
15848;SDS011;8024;48.708;9.394;2023-01-28T01:57:22;9.00;;;6.77;;
15848;SDS011;8024;48.708;9.394;2023-01-28T01:59:52;6.80;;;5.87;;
15848;SDS011;8024;48.708;9.394;2023-01-28T02:02:20;9.10;;;6.33;;
15848;SDS011;8024;48.708;9.394;2023-01-28T02:04:49;8.13;;;6.43;;
15848;SDS011;8024;48.708;9.394;2023-01-28T02:07:17;7.53;;;5.83;;
15848;SDS011;8024;48.708;9.394;2023-01-28T02:09:45;8.00;;;4.90;;
15848;SDS011;8024;48.708;9.394;2023-01-28T02:12:13;7.50;;;6.20;;
15848;SDS011;8024;48.708;9.394;2023-01-28T02:14:43;7.93;;;5.40;;
15848;SDS011;8024;48.708;9.394;2023-01-28T02:17:12;7.07;;;5.63;;
15848;SDS011;8024;48.708;9.394;2023-01-28T02:19:41;8.67;;;5.73;;
15848;SDS011;8024;48.708;9.394;2023-01-28T02:22:23;6.60;;;5.43;;
15848;SDS011;8024;48.708;9.394;2023-01-28T02:25:15;7.87;;;5.93;;
15848;SDS011;8024;48.708;9.394;2023-01-28T02:28:13;9.60;;;5.73;;
15848;SDS011;8024;48.708;9.394;2023-01-28T02:30:50;8.17;;;6.20;;
15848;SDS011;8024;48.708;9.394;2023-01-28T02:33:21;7.20;;;5.70;;
15848;SDS011;8024;48.708;9.394;2023-01-28T02:35:56;7.83;;;5.83;;
15848;SDS011;8024;48.708;9.394;2023-01-28T02:38:30;7.83;;;5.93;;
15848;SDS011;8024;48.708;9.394;2023-01-28T02:41:03;6.87;;;5.63;;
15848;SDS011;8024;48.708;9.394;2023-01-28T02:43:36;7.83;;;5.90;;
15848;SDS011;8024;48.708;9.394;2023-01-28T02:46:09;7.63;;;5.90;;
15848;SDS011;8024;48.708;9.394;2023-01-28T02:48:59;8.17;;;6.30;;
15848;SDS011;8024;48.708;9.394;2023-01-28T02:51:32;9.47;;;6.47;;
15848;SDS011;8024;48.708;9.394;2023-01-28T02:54:07;9.20;;;6.67;;
15848;SDS011;8024;48.708;9.394;2023-01-28T02:56:39;8.17;;;6.63;;
15848;SDS011;8024;48.708;9.394;2023-01-28T02:59:14;7.87;;;7.07;;
15848;SDS011;8024;48.708;9.394;2023-01-28T03:02:01;8.60;;;5.87;;
15848;SDS011;8024;48.708;9.394;2023-01-28T03:04:35;6.77;;;6.07;;
15848;SDS011;8024;48.708;9.394;2023-01-28T03:07:08;6.63;;;5.80;;
15848;SDS011;8024;48.708;9.394;2023-01-28T03:09:37;7.83;;;5.87;;
15848;SDS011;8024;48.708;9.394;2023-01-28T03:12:07;6.93;;;6.17;;
15848;SDS011;8024;48.708;9.394;2023-01-28T03:14:56;8.40;;;5.83;;
15848;SDS011;8024;48.708;9.394;2023-01-28T03:17:44;9.10;;;6.43;;
15848;SDS011;8024;48.708;9.394;2023-01-28T03:20:33;7.57;;;5.73;;
15848;SDS011;8024;48.708;9.394;2023-01-28T03:23:21;6.40;;;5.37;;
15848;SDS011;8024;48.708;9.394;2023-01-28T03:26:11;8.27;;;5.50;;
15848;SDS011;8024;48.708;9.394;2023-01-28T03:28:59;6.80;;;5.60;;
15848;SDS011;8024;48.708;9.394;2023-01-28T03:31:50;6.20;;;5.60;;
15848;SDS011;8024;48.708;9.394;2023-01-28T03:34:36;6.33;;;4.90;;
15848;SDS011;8024;48.708;9.394;2023-01-28T03:37:21;7.70;;;6.17;;
15848;SDS011;8024;48.708;9.394;2023-01-28T03:39:50;8.67;;;6.40;;
15848;SDS011;8024;48.708;9.394;2023-01-28T03:42:17;7.23;;;5.57;;
15848;SDS011;8024;48.708;9.394;2023-01-28T03:44:45;8.07;;;6.50;;
15848;SDS011;8024;48.708;9.394;2023-01-28T03:47:16;9.23;;;6.80;;
15848;SDS011;8024;48.708;9.394;2023-01-28T03:49:44;7.03;;;5.80;;
15848;SDS011;8024;48.708;9.394;2023-01-28T03:52:14;8.77;;;5.87;;
15848;SDS011;8024;48.708;9.394;2023-01-28T03:54:43;7.43;;;6.07;;
15848;SDS011;8024;48.708;9.394;2023-01-28T03:57:12;8.13;;;5.93;;
15848;SDS011;8024;48.708;9.394;2023-01-28T03:59:39;6.27;;;5.47;;
15848;SDS011;8024;48.708;9.394;2023-01-28T04:02:07;8.40;;;6.00;;
15848;SDS011;8024;48.708;9.394;2023-01-28T04:04:37;9.30;;;7.27;;
15848;SDS011;8024;48.708;9.394;2023-01-28T04:07:04;7.13;;;5.87;;
15848;SDS011;8024;48.708;9.394;2023-01-28T04:09:33;7.13;;;6.13;;
15848;SDS011;8024;48.708;9.394;2023-01-28T04:12:00;7.03;;;6.10;;
15848;SDS011;8024;48.708;9.394;2023-01-28T04:14:28;6.53;;;5.80;;
15848;SDS011;8024;48.708;9.394;2023-01-28T04:16:55;9.27;;;7.03;;
15848;SDS011;8024;48.708;9.394;2023-01-28T04:19:23;9.83;;;6.30;;
15848;SDS011;8024;48.708;9.394;2023-01-28T04:21:51;8.87;;;6.10;;
15848;SDS011;8024;48.708;9.394;2023-01-28T04:24:19;8.37;;;6.10;;
15848;SDS011;8024;48.708;9.394;2023-01-28T04:26:47;8.90;;;6.90;;
15848;SDS011;8024;48.708;9.394;2023-01-28T04:29:14;8.70;;;5.70;;
15848;SDS011;8024;48.708;9.394;2023-01-28T04:31:41;7.53;;;6.03;;
15848;SDS011;8024;48.708;9.394;2023-01-28T04:34:08;8.10;;;6.13;;
15848;SDS011;8024;48.708;9.394;2023-01-28T04:36:35;7.57;;;6.73;;
15848;SDS011;8024;48.708;9.394;2023-01-28T04:39:04;7.60;;;6.43;;
15848;SDS011;8024;48.708;9.394;2023-01-28T04:41:31;8.67;;;5.77;;
15848;SDS011;8024;48.708;9.394;2023-01-28T04:43:58;9.73;;;7.00;;
15848;SDS011;8024;48.708;9.394;2023-01-28T04:46:26;7.83;;;6.47;;
15848;SDS011;8024;48.708;9.394;2023-01-28T04:48:53;7.07;;;5.63;;
15848;SDS011;8024;48.708;9.394;2023-01-28T04:51:20;7.13;;;6.10;;
15848;SDS011;8024;48.708;9.394;2023-01-28T04:53:47;10.33;;;7.10;;
15848;SDS011;8024;48.708;9.394;2023-01-28T04:56:16;7.70;;;6.00;;
15848;SDS011;8024;48.708;9.394;2023-01-28T04:58:43;8.07;;;6.90;;
15848;SDS011;8024;48.708;9.394;2023-01-28T05:01:10;7.97;;;6.30;;
15848;SDS011;8024;48.708;9.394;2023-01-28T05:03:37;7.53;;;6.07;;
15848;SDS011;8024;48.708;9.394;2023-01-28T05:06:04;7.87;;;5.83;;
15848;SDS011;8024;48.708;9.394;2023-01-28T05:08:32;8.03;;;5.87;;
15848;SDS011;8024;48.708;9.394;2023-01-28T05:10:59;9.67;;;6.50;;
15848;SDS011;8024;48.708;9.394;2023-01-28T05:13:27;8.90;;;6.37;;
15848;SDS011;8024;48.708;9.394;2023-01-28T05:15:54;8.17;;;6.70;;
15848;SDS011;8024;48.708;9.394;2023-01-28T05:18:21;7.57;;;6.17;;
15848;SDS011;8024;48.708;9.394;2023-01-28T05:20:49;8.57;;;6.07;;
15848;SDS011;8024;48.708;9.394;2023-01-28T05:23:16;9.73;;;7.80;;
15848;SDS011;8024;48.708;9.394;2023-01-28T05:25:43;8.93;;;7.53;;
15848;SDS011;8024;48.708;9.394;2023-01-28T05:28:11;7.80;;;7.00;;
15848;SDS011;8024;48.708;9.394;2023-01-28T05:30:39;7.83;;;6.63;;
15848;SDS011;8024;48.708;9.394;2023-01-28T05:33:07;11.63;;;8.70;;
15848;SDS011;8024;48.708;9.394;2023-01-28T05:35:34;13.57;;;9.60;;
15848;SDS011;8024;48.708;9.394;2023-01-28T05:38:01;10.33;;;8.07;;
15848;SDS011;8024;48.708;9.394;2023-01-28T05:40:28;8.80;;;7.50;;
15848;SDS011;8024;48.708;9.394;2023-01-28T05:42:56;8.60;;;7.70;;
15848;SDS011;8024;48.708;9.394;2023-01-28T05:45:23;7.90;;;6.30;;
15848;SDS011;8024;48.708;9.394;2023-01-28T05:47:51;9.53;;;6.83;;
15848;SDS011;8024;48.708;9.394;2023-01-28T05:50:19;7.07;;;6.23;;
15848;SDS011;8024;48.708;9.394;2023-01-28T05:52:46;8.70;;;7.23;;
15848;SDS011;8024;48.708;9.394;2023-01-28T05:55:13;8.63;;;6.90;;
15848;SDS011;8024;48.708;9.394;2023-01-28T05:57:40;8.03;;;6.60;;
15848;SDS011;8024;48.708;9.394;2023-01-28T06:00:09;7.60;;;6.20;;
15848;SDS011;8024;48.708;9.394;2023-01-28T06:02:37;10.27;;;7.23;;
15848;SDS011;8024;48.708;9.394;2023-01-28T06:05:06;7.50;;;6.30;;
15848;SDS011;8024;48.708;9.394;2023-01-28T06:07:34;6.70;;;6.10;;
15848;SDS011;8024;48.708;9.394;2023-01-28T06:10:01;8.97;;;7.20;;
15848;SDS011;8024;48.708;9.394;2023-01-28T06:12:28;7.93;;;6.60;;
15848;SDS011;8024;48.708;9.394;2023-01-28T06:14:55;9.17;;;6.87;;
15848;SDS011;8024;48.708;9.394;2023-01-28T06:17:22;8.23;;;7.00;;
15848;SDS011;8024;48.708;9.394;2023-01-28T06:19:50;8.70;;;6.67;;
15848;SDS011;8024;48.708;9.394;2023-01-28T06:22:18;7.80;;;6.63;;
15848;SDS011;8024;48.708;9.394;2023-01-28T06:24:45;8.10;;;6.97;;
15848;SDS011;8024;48.708;9.394;2023-01-28T06:27:12;7.53;;;6.70;;
15848;SDS011;8024;48.708;9.394;2023-01-28T06:29:40;8.73;;;6.83;;
15848;SDS011;8024;48.708;9.394;2023-01-28T06:32:07;7.80;;;6.37;;
15848;SDS011;8024;48.708;9.394;2023-01-28T06:34:34;8.70;;;7.07;;
15848;SDS011;8024;48.708;9.394;2023-01-28T06:37:01;8.07;;;6.47;;
15848;SDS011;8024;48.708;9.394;2023-01-28T06:39:30;8.73;;;7.07;;
15848;SDS011;8024;48.708;9.394;2023-01-28T06:41:57;6.90;;;6.13;;
15848;SDS011;8024;48.708;9.394;2023-01-28T06:44:25;8.37;;;6.30;;
15848;SDS011;8024;48.708;9.394;2023-01-28T06:46:52;8.33;;;6.80;;
15848;SDS011;8024;48.708;9.394;2023-01-28T06:49:19;7.30;;;5.90;;
15848;SDS011;8024;48.708;9.394;2023-01-28T06:51:46;7.20;;;6.07;;
15848;SDS011;8024;48.708;9.394;2023-01-28T06:54:13;7.13;;;5.93;;
15848;SDS011;8024;48.708;9.394;2023-01-28T06:56:42;7.53;;;6.13;;
15848;SDS011;8024;48.708;9.394;2023-01-28T06:59:09;7.87;;;5.97;;
15848;SDS011;8024;48.708;9.394;2023-01-28T07:01:36;8.13;;;6.03;;
15848;SDS011;8024;48.708;9.394;2023-01-28T07:04:04;7.27;;;6.43;;
15848;SDS011;8024;48.708;9.394;2023-01-28T07:06:31;8.30;;;6.43;;
15848;SDS011;8024;48.708;9.394;2023-01-28T07:08:58;7.83;;;6.53;;
15848;SDS011;8024;48.708;9.394;2023-01-28T07:11:25;9.43;;;6.77;;
15848;SDS011;8024;48.708;9.394;2023-01-28T07:13:54;7.27;;;5.90;;
15848;SDS011;8024;48.708;9.394;2023-01-28T07:16:21;9.47;;;6.73;;
15848;SDS011;8024;48.708;9.394;2023-01-28T07:18:48;8.17;;;6.60;;
15848;SDS011;8024;48.708;9.394;2023-01-28T07:21:15;10.17;;;7.20;;
15848;SDS011;8024;48.708;9.394;2023-01-28T07:23:42;9.60;;;6.90;;
15848;SDS011;8024;48.708;9.394;2023-01-28T07:26:10;9.50;;;7.70;;
15848;SDS011;8024;48.708;9.394;2023-01-28T07:28:37;9.40;;;6.60;;
15848;SDS011;8024;48.708;9.394;2023-01-28T07:31:05;8.73;;;7.00;;
15848;SDS011;8024;48.708;9.394;2023-01-28T07:33:33;9.07;;;6.80;;
15848;SDS011;8024;48.708;9.394;2023-01-28T07:36:00;10.93;;;7.30;;
15848;SDS011;8024;48.708;9.394;2023-01-28T07:38:27;8.40;;;7.23;;
15848;SDS011;8024;48.708;9.394;2023-01-28T07:40:54;9.00;;;7.93;;
15848;SDS011;8024;48.708;9.394;2023-01-28T07:43:21;7.13;;;6.43;;
15848;SDS011;8024;48.708;9.394;2023-01-28T07:45:48;8.43;;;6.40;;
15848;SDS011;8024;48.708;9.394;2023-01-28T07:48:17;8.63;;;6.67;;
15848;SDS011;8024;48.708;9.394;2023-01-28T07:50:44;10.27;;;7.13;;
15848;SDS011;8024;48.708;9.394;2023-01-28T07:53:13;8.93;;;7.00;;
15848;SDS011;8024;48.708;9.394;2023-01-28T07:55:41;8.77;;;6.70;;
15848;SDS011;8024;48.708;9.394;2023-01-28T07:58:09;7.47;;;6.20;;
15848;SDS011;8024;48.708;9.394;2023-01-28T08:00:37;8.20;;;6.90;;
15848;SDS011;8024;48.708;9.394;2023-01-28T08:03:05;8.33;;;7.07;;
15848;SDS011;8024;48.708;9.394;2023-01-28T08:05:38;9.33;;;7.13;;
15848;SDS011;8024;48.708;9.394;2023-01-28T08:08:07;9.33;;;7.47;;
15848;SDS011;8024;48.708;9.394;2023-01-28T08:10:34;8.73;;;6.53;;
15848;SDS011;8024;48.708;9.394;2023-01-28T08:13:02;8.07;;;7.07;;
15848;SDS011;8024;48.708;9.394;2023-01-28T08:15:30;10.57;;;7.77;;
15848;SDS011;8024;48.708;9.394;2023-01-28T08:17:57;8.97;;;7.43;;
15848;SDS011;8024;48.708;9.394;2023-01-28T08:20:26;9.70;;;7.87;;
15848;SDS011;8024;48.708;9.394;2023-01-28T08:23:04;10.13;;;7.03;;
15848;SDS011;8024;48.708;9.394;2023-01-28T08:25:32;10.30;;;7.40;;
15848;SDS011;8024;48.708;9.394;2023-01-28T08:28:00;7.93;;;7.07;;
15848;SDS011;8024;48.708;9.394;2023-01-28T08:30:28;10.43;;;8.27;;
15848;SDS011;8024;48.708;9.394;2023-01-28T08:32:56;11.33;;;8.13;;
15848;SDS011;8024;48.708;9.394;2023-01-28T08:35:23;10.50;;;8.07;;
15848;SDS011;8024;48.708;9.394;2023-01-28T08:37:51;9.40;;;7.97;;
15848;SDS011;8024;48.708;9.394;2023-01-28T08:40:20;9.00;;;6.93;;
15848;SDS011;8024;48.708;9.394;2023-01-28T08:42:47;9.53;;;7.23;;
15848;SDS011;8024;48.708;9.394;2023-01-28T08:45:16;8.40;;;7.17;;
15848;SDS011;8024;48.708;9.394;2023-01-28T08:47:47;10.00;;;8.00;;
15848;SDS011;8024;48.708;9.394;2023-01-28T08:50:15;9.27;;;7.87;;
15848;SDS011;8024;48.708;9.394;2023-01-28T08:52:43;9.63;;;8.10;;
15848;SDS011;8024;48.708;9.394;2023-01-28T08:55:10;9.27;;;7.27;;
15848;SDS011;8024;48.708;9.394;2023-01-28T08:57:39;12.27;;;8.10;;
15848;SDS011;8024;48.708;9.394;2023-01-28T09:00:07;10.43;;;8.23;;
15848;SDS011;8024;48.708;9.394;2023-01-28T09:02:35;10.23;;;8.17;;
15848;SDS011;8024;48.708;9.394;2023-01-28T09:05:03;11.27;;;8.80;;
15848;SDS011;8024;48.708;9.394;2023-01-28T09:07:33;10.83;;;8.17;;
15848;SDS011;8024;48.708;9.394;2023-01-28T09:10:00;7.73;;;6.57;;
15848;SDS011;8024;48.708;9.394;2023-01-28T09:12:28;10.00;;;8.00;;
15848;SDS011;8024;48.708;9.394;2023-01-28T09:14:57;11.37;;;8.90;;
15848;SDS011;8024;48.708;9.394;2023-01-28T09:17:24;8.17;;;7.10;;
15848;SDS011;8024;48.708;9.394;2023-01-28T09:19:51;10.67;;;8.37;;
15848;SDS011;8024;48.708;9.394;2023-01-28T09:22:18;9.87;;;7.87;;
15848;SDS011;8024;48.708;9.394;2023-01-28T09:24:45;11.23;;;8.50;;
15848;SDS011;8024;48.708;9.394;2023-01-28T09:27:13;10.73;;;8.40;;
15848;SDS011;8024;48.708;9.394;2023-01-28T09:29:40;8.07;;;7.00;;
15848;SDS011;8024;48.708;9.394;2023-01-28T09:32:08;8.67;;;7.37;;
15848;SDS011;8024;48.708;9.394;2023-01-28T09:34:36;10.70;;;8.43;;
15848;SDS011;8024;48.708;9.394;2023-01-28T09:37:03;9.37;;;8.07;;
15848;SDS011;8024;48.708;9.394;2023-01-28T09:39:30;10.13;;;7.90;;
15848;SDS011;8024;48.708;9.394;2023-01-28T09:42:01;10.37;;;7.77;;
15848;SDS011;8024;48.708;9.394;2023-01-28T09:44:41;8.20;;;6.73;;
15848;SDS011;8024;48.708;9.394;2023-01-28T09:47:20;9.57;;;8.00;;
15848;SDS011;8024;48.708;9.394;2023-01-28T09:49:52;10.73;;;8.00;;
15848;SDS011;8024;48.708;9.394;2023-01-28T09:52:22;9.53;;;8.10;;
15848;SDS011;8024;48.708;9.394;2023-01-28T09:54:51;11.63;;;8.73;;
15848;SDS011;8024;48.708;9.394;2023-01-28T09:57:21;14.07;;;9.73;;
15848;SDS011;8024;48.708;9.394;2023-01-28T09:59:51;10.77;;;8.50;;
15848;SDS011;8024;48.708;9.394;2023-01-28T10:02:33;12.23;;;8.17;;
15848;SDS011;8024;48.708;9.394;2023-01-28T10:05:13;12.80;;;9.53;;
15848;SDS011;8024;48.708;9.394;2023-01-28T10:07:46;11.60;;;8.50;;
15848;SDS011;8024;48.708;9.394;2023-01-28T10:10:21;10.00;;;7.93;;
15848;SDS011;8024;48.708;9.394;2023-01-28T10:12:57;8.90;;;7.70;;
15848;SDS011;8024;48.708;9.394;2023-01-28T10:15:44;10.70;;;9.00;;
15848;SDS011;8024;48.708;9.394;2023-01-28T10:18:24;10.50;;;8.80;;
15848;SDS011;8024;48.708;9.394;2023-01-28T10:21:01;9.40;;;7.53;;
15848;SDS011;8024;48.708;9.394;2023-01-28T10:23:38;11.47;;;7.87;;
15848;SDS011;8024;48.708;9.394;2023-01-28T10:26:19;10.97;;;7.73;;
15848;SDS011;8024;48.708;9.394;2023-01-28T10:28:50;10.53;;;7.77;;
15848;SDS011;8024;48.708;9.394;2023-01-28T10:31:22;11.83;;;8.77;;
15848;SDS011;8024;48.708;9.394;2023-01-28T10:33:57;12.00;;;9.17;;
15848;SDS011;8024;48.708;9.394;2023-01-28T10:36:25;11.53;;;8.13;;
15848;SDS011;8024;48.708;9.394;2023-01-28T10:38:52;9.63;;;7.93;;
15848;SDS011;8024;48.708;9.394;2023-01-28T10:41:20;10.33;;;7.87;;
15848;SDS011;8024;48.708;9.394;2023-01-28T10:43:49;9.57;;;8.30;;
15848;SDS011;8024;48.708;9.394;2023-01-28T10:46:18;11.47;;;8.70;;
15848;SDS011;8024;48.708;9.394;2023-01-28T10:48:52;10.17;;;8.23;;
15848;SDS011;8024;48.708;9.394;2023-01-28T10:51:31;11.70;;;8.90;;
15848;SDS011;8024;48.708;9.394;2023-01-28T10:54:00;10.53;;;8.73;;
15848;SDS011;8024;48.708;9.394;2023-01-28T10:56:29;10.97;;;8.47;;
15848;SDS011;8024;48.708;9.394;2023-01-28T10:58:57;12.83;;;8.40;;
15848;SDS011;8024;48.708;9.394;2023-01-28T11:01:39;11.43;;;8.33;;
15848;SDS011;8024;48.708;9.394;2023-01-28T11:04:14;9.57;;;7.43;;
15848;SDS011;8024;48.708;9.394;2023-01-28T11:06:52;10.40;;;7.53;;
15848;SDS011;8024;48.708;9.394;2023-01-28T11:09:21;9.43;;;7.53;;
15848;SDS011;8024;48.708;9.394;2023-01-28T11:11:50;9.77;;;7.40;;
15848;SDS011;8024;48.708;9.394;2023-01-28T11:14:21;8.87;;;7.10;;
15848;SDS011;8024;48.708;9.394;2023-01-28T11:16:50;9.13;;;7.70;;
15848;SDS011;8024;48.708;9.394;2023-01-28T11:19:19;10.73;;;8.30;;
15848;SDS011;8024;48.708;9.394;2023-01-28T11:21:54;13.03;;;9.30;;
15848;SDS011;8024;48.708;9.394;2023-01-28T11:24:24;11.00;;;8.13;;
15848;SDS011;8024;48.708;9.394;2023-01-28T11:26:55;10.17;;;8.73;;
15848;SDS011;8024;48.708;9.394;2023-01-28T11:29:25;12.33;;;8.63;;
15848;SDS011;8024;48.708;9.394;2023-01-28T11:31:55;12.40;;;9.13;;
15848;SDS011;8024;48.708;9.394;2023-01-28T11:34:24;11.60;;;9.17;;
15848;SDS011;8024;48.708;9.394;2023-01-28T11:36:54;11.30;;;8.73;;
15848;SDS011;8024;48.708;9.394;2023-01-28T11:39:28;12.97;;;9.67;;
15848;SDS011;8024;48.708;9.394;2023-01-28T11:42:02;11.73;;;9.07;;
15848;SDS011;8024;48.708;9.394;2023-01-28T11:44:36;14.53;;;11.20;;
15848;SDS011;8024;48.708;9.394;2023-01-28T11:47:09;11.63;;;8.13;;
15848;SDS011;8024;48.708;9.394;2023-01-28T11:52:54;12.80;;;9.80;;
15848;SDS011;8024;48.708;9.394;2023-01-28T11:55:35;12.13;;;8.93;;
15848;SDS011;8024;48.708;9.394;2023-01-28T11:58:11;11.73;;;8.17;;
15848;SDS011;8024;48.708;9.394;2023-01-28T12:00:47;11.40;;;8.17;;
15848;SDS011;8024;48.708;9.394;2023-01-28T12:03:37;11.43;;;8.70;;
15848;SDS011;8024;48.708;9.394;2023-01-28T12:06:21;12.30;;;8.90;;
15848;SDS011;8024;48.708;9.394;2023-01-28T12:09:00;11.53;;;8.13;;
15848;SDS011;8024;48.708;9.394;2023-01-28T12:11:38;10.50;;;8.13;;
15848;SDS011;8024;48.708;9.394;2023-01-28T12:14:33;10.37;;;7.90;;
15848;SDS011;8024;48.708;9.394;2023-01-28T12:17:15;10.37;;;7.97;;
15848;SDS011;8024;48.708;9.394;2023-01-28T12:19:57;11.10;;;7.97;;
15848;SDS011;8024;48.708;9.394;2023-01-28T12:25:32;11.53;;;9.20;;
15848;SDS011;8024;48.708;9.394;2023-01-28T12:28:07;14.20;;;11.17;;
15848;SDS011;8024;48.708;9.394;2023-01-28T12:30:42;12.27;;;8.70;;
15848;SDS011;8024;48.708;9.394;2023-01-28T12:33:35;15.40;;;10.47;;
15848;SDS011;8024;48.708;9.394;2023-01-28T12:36:15;14.87;;;11.47;;
15848;SDS011;8024;48.708;9.394;2023-01-28T12:38:52;13.90;;;10.77;;
15848;SDS011;8024;48.708;9.394;2023-01-28T12:41:30;15.67;;;10.83;;
15848;SDS011;8024;48.708;9.394;2023-01-28T12:44:01;12.37;;;9.27;;
15848;SDS011;8024;48.708;9.394;2023-01-28T12:46:34;11.70;;;8.53;;
15848;SDS011;8024;48.708;9.394;2023-01-28T12:49:07;11.87;;;8.30;;
15848;SDS011;8024;48.708;9.394;2023-01-28T12:51:44;12.60;;;9.07;;
15848;SDS011;8024;48.708;9.394;2023-01-28T12:54:19;9.57;;;8.13;;
15848;SDS011;8024;48.708;9.394;2023-01-28T12:56:52;12.17;;;9.07;;
15848;SDS011;8024;48.708;9.394;2023-01-28T12:59:21;11.67;;;8.03;;
15848;SDS011;8024;48.708;9.394;2023-01-28T13:01:54;11.67;;;8.57;;
15848;SDS011;8024;48.708;9.394;2023-01-28T13:04:31;14.00;;;9.30;;
15848;SDS011;8024;48.708;9.394;2023-01-28T13:07:03;12.47;;;9.03;;
15848;SDS011;8024;48.708;9.394;2023-01-28T13:09:36;20.80;;;14.00;;
15848;SDS011;8024;48.708;9.394;2023-01-28T13:12:09;28.23;;;17.83;;
15848;SDS011;8024;48.708;9.394;2023-01-28T13:14:37;14.03;;;10.47;;
15848;SDS011;8024;48.708;9.394;2023-01-28T13:17:09;10.90;;;9.00;;
15848;SDS011;8024;48.708;9.394;2023-01-28T13:19:38;13.70;;;9.40;;
15848;SDS011;8024;48.708;9.394;2023-01-28T13:22:10;12.10;;;9.53;;
15848;SDS011;8024;48.708;9.394;2023-01-28T13:24:38;11.63;;;9.73;;
15848;SDS011;8024;48.708;9.394;2023-01-28T13:27:11;14.67;;;10.20;;
15848;SDS011;8024;48.708;9.394;2023-01-28T13:29:47;15.33;;;10.40;;
15848;SDS011;8024;48.708;9.394;2023-01-28T13:32:32;15.60;;;10.70;;
15848;SDS011;8024;48.708;9.394;2023-01-28T13:35:01;12.13;;;9.53;;
15848;SDS011;8024;48.708;9.394;2023-01-28T13:37:32;16.07;;;10.23;;
15848;SDS011;8024;48.708;9.394;2023-01-28T13:40:03;12.97;;;9.93;;
15848;SDS011;8024;48.708;9.394;2023-01-28T13:42:35;12.07;;;8.87;;
15848;SDS011;8024;48.708;9.394;2023-01-28T13:47:56;13.53;;;10.03;;
15848;SDS011;8024;48.708;9.394;2023-01-28T13:50:31;16.27;;;9.23;;
15848;SDS011;8024;48.708;9.394;2023-01-28T13:53:06;13.30;;;8.70;;
15848;SDS011;8024;48.708;9.394;2023-01-28T13:55:44;14.20;;;8.67;;
15848;SDS011;8024;48.708;9.394;2023-01-28T13:58:27;11.23;;;8.20;;
15848;SDS011;8024;48.708;9.394;2023-01-28T14:01:11;15.27;;;9.47;;
15848;SDS011;8024;48.708;9.394;2023-01-28T14:04:05;15.50;;;9.80;;
15848;SDS011;8024;48.708;9.394;2023-01-28T14:07:09;12.13;;;9.00;;
15848;SDS011;8024;48.708;9.394;2023-01-28T14:10:02;10.97;;;7.13;;
15848;SDS011;8024;48.708;9.394;2023-01-28T14:12:48;9.97;;;7.10;;
15848;SDS011;8024;48.708;9.394;2023-01-28T14:15:46;7.87;;;6.33;;
15848;SDS011;8024;48.708;9.394;2023-01-28T14:18:39;8.00;;;7.20;;
15848;SDS011;8024;48.708;9.394;2023-01-28T14:21:10;10.83;;;7.10;;
15848;SDS011;8024;48.708;9.394;2023-01-28T14:23:43;7.37;;;6.50;;
15848;SDS011;8024;48.708;9.394;2023-01-28T14:26:18;8.27;;;5.83;;
15848;SDS011;8024;48.708;9.394;2023-01-28T14:29:02;6.60;;;5.43;;
15848;SDS011;8024;48.708;9.394;2023-01-28T14:31:42;7.77;;;6.13;;
15848;SDS011;8024;48.708;9.394;2023-01-28T14:34:10;6.70;;;5.87;;
15848;SDS011;8024;48.708;9.394;2023-01-28T14:36:44;6.53;;;5.83;;
15848;SDS011;8024;48.708;9.394;2023-01-28T14:39:16;8.37;;;5.67;;
15848;SDS011;8024;48.708;9.394;2023-01-28T14:41:45;8.73;;;6.40;;
15848;SDS011;8024;48.708;9.394;2023-01-28T14:44:19;9.30;;;6.87;;
15848;SDS011;8024;48.708;9.394;2023-01-28T14:46:56;8.60;;;6.00;;
15848;SDS011;8024;48.708;9.394;2023-01-28T14:49:37;8.53;;;6.23;;
15848;SDS011;8024;48.708;9.394;2023-01-28T14:52:18;7.67;;;6.57;;
15848;SDS011;8024;48.708;9.394;2023-01-28T14:55:03;10.53;;;7.20;;
15848;SDS011;8024;48.708;9.394;2023-01-28T14:57:39;6.20;;;5.60;;
15848;SDS011;8024;48.708;9.394;2023-01-28T15:00:18;9.90;;;6.60;;
15848;SDS011;8024;48.708;9.394;2023-01-28T15:02:48;7.33;;;6.43;;
15848;SDS011;8024;48.708;9.394;2023-01-28T15:05:16;14.03;;;12.30;;
15848;SDS011;8024;48.708;9.394;2023-01-28T15:07:45;9.40;;;7.17;;
15848;SDS011;8024;48.708;9.394;2023-01-28T15:10:14;7.80;;;6.40;;
15848;SDS011;8024;48.708;9.394;2023-01-28T15:12:44;13.43;;;10.00;;
15848;SDS011;8024;48.708;9.394;2023-01-28T15:15:17;10.47;;;9.37;;
15848;SDS011;8024;48.708;9.394;2023-01-28T15:17:50;10.07;;;7.97;;
15848;SDS011;8024;48.708;9.394;2023-01-28T15:20:20;10.73;;;8.10;;
15848;SDS011;8024;48.708;9.394;2023-01-28T15:22:48;7.97;;;6.33;;
15848;SDS011;8024;48.708;9.394;2023-01-28T15:25:18;8.67;;;6.67;;
15848;SDS011;8024;48.708;9.394;2023-01-28T15:27:47;10.87;;;8.97;;
15848;SDS011;8024;48.708;9.394;2023-01-28T15:30:17;13.93;;;10.13;;
15848;SDS011;8024;48.708;9.394;2023-01-28T15:32:56;12.53;;;9.37;;